Time;durP1;ratioP1;P1;durP2;ratioP2;P2;SDS_P1;SDS_P2;PMS_P1;PMS_P2;Temp;Humidity;BMP_temperature;BMP_pressure;BME280_temperature;BME280_humidity;BME280_pressure;Samples;Min_cycle;Max_cycle;Signal;HPM_P1;HPM_P2
2022/09/01 00:01:56;;;;;;;;;;;;;;;24.03;48.41;153699.33;1703286;84;21135;-62
2022/09/01 00:04:27;;;;;;;;;;;;;;;23.97;48.68;153683.53;1703871;84;20506;-62
2022/09/01 00:06:54;;;;;;;;;;;;;;;23.89;48.81;153662.61;1703479;84;20184;-61
2022/09/01 00:09:21;;;;;;;;;;;;;;;23.71;49.30;153618.09;1691418;84;20185;-62
2022/09/01 00:11:51;;;;;;;;;;;;;;;23.59;49.55;153586.70;1643772;86;20217;-62
2022/09/01 00:14:19;;;;;;;;;;;;;;;23.52;49.74;153569.67;1686592;84;21209;-61
2022/09/01 00:16:45;;;;;;;;;;;;;;;23.48;49.90;153557.88;1686276;84;20468;-61
2022/09/01 00:19:12;;;;;;;;;;;;;;;23.45;50.13;153551.38;1686128;84;20184;-62
2022/09/01 00:21:40;;;;;;;;;;;;;;;23.57;50.25;153581.47;1686007;85;20702;-63
2022/09/01 00:24:07;;;;;;;;;;;;;;;23.84;49.86;153649.53;1686144;84;20221;-62
2022/09/01 00:26:34;;;;;;;;;;;;;;;24.08;49.39;153709.80;1686485;84;21210;-63
2022/09/01 00:29:01;;;;;;;;;;;;;;;24.23;49.27;153749.09;1686061;85;20223;-62
2022/09/01 00:31:28;;;;;;;;;;;;;;;24.33;49.11;153773.97;1686125;85;20179;-61
2022/09/01 00:33:55;;;;;;;;;;;;;;;24.30;49.25;153767.41;1685841;85;20182;-61
2022/09/01 00:36:21;;;;;;;;;;;;;;;24.29;49.31;153764.78;1686055;85;20175;-61
2022/09/01 00:38:49;;;;;;;;;;;;;;;24.17;49.16;153733.34;1685952;84;22088;-61
2022/09/01 00:41:18;;;;;;;;;;;;;;;23.96;49.50;153679.64;1686024;84;20175;-62
2022/09/01 00:43:50;;;;;;;;;;;;;;;23.85;49.94;153652.14;1686060;84;20167;-61
2022/09/01 00:46:23;;;;;;;;;;;;;;;23.88;50.01;153659.98;1695310;84;20861;-61
2022/09/01 00:48:56;;;;;;;;;;;;;;;23.94;49.79;153675.69;1698414;84;20215;-61
2022/09/01 00:51:22;;;;;;;;;;;;;;;23.93;49.82;153673.08;1641057;86;21234;-62
2022/09/01 00:53:49;;;;;;;;;;;;;;;23.91;50.02;153667.84;1641609;86;20219;-62
2022/09/01 00:56:16;;;;;;;;;;;;;;;23.84;50.16;153650.81;1641539;87;20416;-61
2022/09/01 00:58:43;;;;;;;;;;;;;;;23.89;50.37;153662.61;1641607;86;20669;-62
2022/09/01 01:01:10;;;;;;;;;;;;;;;23.83;50.37;153646.91;1641632;86;20198;-61
2022/09/01 01:03:41;;;;;;;;;;;;;;;23.66;50.73;153603.73;1642112;87;21138;-61
2022/09/01 01:06:07;;;;;;;;;;;;;;;23.58;51.27;153584.09;1638528;87;20228;-62
2022/09/01 01:08:36;;;;;;;;;;;;;;;23.50;51.54;153564.44;1664841;84;20184;-62
2022/09/01 01:11:06;;;;;;;;;;;;;;;23.52;51.58;153568.34;1632486;88;20513;-62
2022/09/01 01:13:49;;;;;;;;;;;;;;;23.51;51.77;153565.72;1641263;87;20211;-62
2022/09/01 01:16:17;;;;;;;;;;;;;;;23.47;52.02;153556.59;1672274;85;21160;-62
2022/09/01 01:18:44;;;;;;;;;;;;;;;23.37;52.59;153531.73;1673638;85;20292;-61
2022/09/01 01:24:27;;;;;;;;;;;;;;;23.34;52.97;153523.88;1673915;85;20097;-69
2022/09/01 01:26:56;;;;;;;;;;;;;;;23.37;53.42;153531.73;1673278;85;20221;-69
2022/09/01 01:29:24;;;;;;;;;;;;;;;23.43;53.44;153546.09;1673400;85;21310;-69
2022/09/01 01:31:52;;;;;;;;;;;;;;;23.49;53.29;153560.50;1673485;85;20218;-70
2022/09/01 01:34:21;;;;;;;;;;;;;;;23.58;53.00;153584.09;1673145;85;20488;-71
2022/09/01 01:36:49;;;;;;;;;;;;;;;23.73;52.61;153622.03;1673075;85;20196;-70
2022/09/01 01:39:19;;;;;;;;;;;;;;;23.78;52.09;153633.83;1673402;85;20893;-71
2022/09/01 01:41:49;;;;;;;;;;;;;;;23.63;52.07;153595.83;1673307;85;21243;-70
2022/09/01 01:44:18;;;;;;;;;;;;;;;23.43;52.34;153547.42;1673125;85;20172;-70
2022/09/01 01:46:49;;;;;;;;;;;;;;;23.32;52.72;153518.61;1677400;85;32516;-72
2022/09/01 01:49:18;;;;;;;;;;;;;;;23.32;52.71;153518.61;1679219;84;20464;-71
2022/09/01 01:51:47;;;;;;;;;;;;;;;23.28;52.80;153508.14;1677692;85;20468;-70
2022/09/01 01:54:14;;;;;;;;;;;;;;;23.35;52.55;153526.50;1677334;85;21233;-69
2022/09/01 01:56:41;;;;;;;;;;;;;;;23.29;52.49;153510.77;1677227;84;20248;-71
2022/09/01 01:59:12;;;;;;;;;;;;;;;23.14;52.84;153474.11;1677183;84;20195;-69
2022/09/01 02:01:38;;;;;;;;;;;;;;;23.09;53.18;153460.98;1676637;84;20814;-70
2022/09/01 02:04:05;;;;;;;;;;;;;;;23.08;53.18;153458.36;1677214;85;20753;-71
2022/09/01 02:06:33;;;;;;;;;;;;;;;22.97;53.55;153429.59;1700982;84;21806;-71
2022/09/01 02:09:02;;;;;;;;;;;;;;;22.80;54.06;153387.72;1708826;82;20183;-71
2022/09/01 02:11:32;;;;;;;;;;;;;;;22.61;54.78;153339.34;1709382;82;20497;-70
2022/09/01 02:13:58;;;;;;;;;;;;;;;22.41;55.60;153289.58;1704229;84;20497;-70
2022/09/01 02:16:28;;;;;;;;;;;;;;;22.22;56.44;153239.87;1704647;83;20239;-71
2022/09/01 02:18:55;;;;;;;;;;;;;;;22.16;57.25;153226.81;1709468;84;21993;-71
2022/09/01 02:21:23;;;;;;;;;;;;;;;22.18;57.51;153230.69;1709253;82;20169;-71
2022/09/01 02:24:04;;;;;;;;;;;;;;;22.21;57.84;153238.53;1709447;84;20562;-70
2022/09/01 02:26:33;;;;;;;;;;;;;;;22.26;57.99;153250.33;1709632;82;20227;-70
2022/09/01 02:29:03;;;;;;;;;;;;;;;22.21;58.21;153238.53;1709237;82;20440;-71
2022/09/01 02:31:31;;;;;;;;;;;;;;;22.14;58.62;153220.25;1705330;83;21240;-69
2022/09/01 02:33:59;;;;;;;;;;;;;;;22.15;58.96;153222.86;1709206;84;20175;-70
2022/09/01 02:36:26;;;;;;;;;;;;;;;22.09;59.29;153207.19;1709322;84;20148;-70
2022/09/01 02:38:53;;;;;;;;;;;;;;;22.12;59.49;153216.34;1709011;84;20477;-70
2022/09/01 02:41:22;;;;;;;;;;;;;;;22.01;59.15;153188.89;1709159;84;20223;-73
2022/09/01 02:43:48;;;;;;;;;;;;;;;21.79;59.78;153131.36;1709693;84;21146;-71
2022/09/01 02:46:15;;;;;;;;;;;;;;;21.58;60.65;153079.00;1707458;82;20132;-62
2022/09/01 02:48:44;;;;;;;;;;;;;;;21.50;61.26;153058.06;1697967;84;20173;-62
2022/09/01 02:51:13;;;;;;;;;;;;;;;21.51;61.75;153060.67;1693106;84;20174;-62
2022/09/01 02:53:41;;;;;;;;;;;;;;;21.56;61.79;153073.78;1693538;84;20234;-62
2022/09/01 02:56:10;;;;;;;;;;;;;;;21.62;61.83;153089.45;1666036;84;21221;-62
2022/09/01 02:58:44;;;;;;;;;;;;;;;21.66;61.71;153099.95;1693589;84;20230;-62
2022/09/01 03:01:10;;;;;;;;;;;;;;;21.60;61.94;153085.52;1692991;84;20189;-62
2022/09/01 03:03:37;;;;;;;;;;;;;;;21.52;62.62;153063.28;1693893;84;20186;-62
2022/09/01 03:06:09;;;;;;;;;;;;;;;21.47;63.44;153052.83;1696027;83;20623;-62
2022/09/01 03:08:38;;;;;;;;;;;;;;;21.37;64.27;153026.72;1698444;84;21144;-62
2022/09/01 03:11:02;;;;;;;;;;;;;;;21.28;64.92;153004.50;1698016;83;20193;-62
2022/09/01 03:13:30;;;;;;;;;;;;;;;21.26;65.46;152997.94;1695148;84;20151;-62
2022/09/01 03:15:56;;;;;;;;;;;;;;;21.20;65.70;152982.27;1693210;84;20190;-62
2022/09/01 03:18:23;;;;;;;;;;;;;;;21.15;66.07;152971.81;1693350;84;20380;-62
2022/09/01 03:20:51;;;;;;;;;;;;;;;21.08;66.23;152953.48;1693341;84;22070;-62
2022/09/01 03:23:18;;;;;;;;;;;;;;;21.00;66.65;152932.59;1693085;84;20199;-62
2022/09/01 03:25:45;;;;;;;;;;;;;;;20.98;66.71;152928.66;1693880;84;20151;-62
2022/09/01 03:28:12;;;;;;;;;;;;;;;20.99;66.84;152929.98;1693364;84;20182;-62
2022/09/01 03:30:49;;;;;;;;;;;;;;;21.04;66.49;152943.05;1693724;84;20605;-61
2022/09/01 03:33:16;;;;;;;;;;;;;;;21.05;66.37;152945.66;1692836;84;22196;-69
2022/09/01 03:35:44;;;;;;;;;;;;;;;21.04;66.31;152944.38;1693914;84;20203;-70
2022/09/01 03:38:12;;;;;;;;;;;;;;;21.08;66.31;152952.20;1693339;84;20199;-69
2022/09/01 03:40:39;;;;;;;;;;;;;;;21.06;66.10;152948.27;1693902;84;21706;-69
2022/09/01 03:43:11;;;;;;;;;;;;;;;21.01;66.33;152936.53;1693541;84;20207;-70
2022/09/01 03:45:39;;;;;;;;;;;;;;;21.10;66.06;152957.44;1693351;84;21145;-70
2022/09/01 03:48:08;;;;;;;;;;;;;;;21.14;65.83;152969.20;1693318;83;20459;-69
2022/09/01 03:50:41;;;;;;;;;;;;;;;21.21;65.44;152984.88;1723079;83;20132;-70
2022/09/01 03:53:21;;;;;;;;;;;;;;;21.21;65.14;152984.88;1698289;84;20988;-69
2022/09/01 03:55:49;;;;;;;;;;;;;;;21.15;65.14;152971.81;1662899;86;20184;-69
2022/09/01 03:58:19;;;;;;;;;;;;;;;21.14;65.11;152969.20;1662576;86;21085;-69
2022/09/01 04:00:48;;;;;;;;;;;;;;;21.17;65.03;152975.70;1662404;86;20202;-70
2022/09/01 04:03:20;;;;;;;;;;;;;;;21.18;64.63;152979.66;1662549;85;20185;-63
2022/09/01 04:05:44;;;;;;;;;;;;;;;21.13;64.59;152966.59;1662631;85;20479;-62
2022/09/01 04:08:12;;;;;;;;;;;;;;;21.11;64.99;152961.38;1634237;87;20183;-71
2022/09/01 04:10:50;;;;;;;;;;;;;;;21.18;64.82;152979.66;1634272;86;21267;-70
2022/09/01 04:13:20;;;;;;;;;;;;;;;21.24;64.55;152992.72;1695984;84;20179;-71
2022/09/01 04:15:47;;;;;;;;;;;;;;;21.22;64.38;152987.48;1693706;84;20127;-71
2022/09/01 04:18:21;;;;;;;;;;;;;;;21.21;64.51;152984.88;1693381;84;20585;-69
2022/09/01 04:20:58;;;;;;;;;;;;;;;21.27;64.41;153000.55;1693710;84;20206;-69
2022/09/01 04:23:26;;;;;;;;;;;;;;;21.38;64.23;153028.00;1693478;84;21091;-70
2022/09/01 04:25:58;;;;;;;;;;;;;;;21.51;63.61;153062.00;1693355;84;20547;-70
2022/09/01 04:28:29;;;;;;;;;;;;;;;21.53;63.46;153065.91;1693681;83;20171;-69
2022/09/01 04:30:57;;;;;;;;;;;;;;;21.52;63.44;153063.28;1692938;84;20383;-69
2022/09/01 04:33:26;;;;;;;;;;;;;;;21.60;63.57;153085.52;1693472;84;20223;-71
2022/09/01 04:35:55;;;;;;;;;;;;;;;21.81;63.13;153136.58;1693672;83;21228;-63
2022/09/01 04:38:23;;;;;;;;;;;;;;;21.91;62.58;153162.72;1693525;84;20475;-62
2022/09/01 04:40:51;;;;;;;;;;;;;;;21.90;62.69;153160.09;1693659;84;20211;-62
2022/09/01 04:43:18;;;;;;;;;;;;;;;21.91;62.73;153161.44;1693212;84;20484;-63
2022/09/01 04:45:45;;;;;;;;;;;;;;;21.91;62.57;153162.72;1693349;84;20249;-70
2022/09/01 04:48:12;;;;;;;;;;;;;;;21.87;62.67;153152.25;1693196;84;21956;-72
2022/09/01 04:50:39;;;;;;;;;;;;;;;21.93;62.27;153167.94;1697990;83;20218;-70
2022/09/01 04:53:11;;;;;;;;;;;;;;;21.86;62.36;153150.94;1709045;82;20174;-70
2022/09/01 04:55:42;;;;;;;;;;;;;;;21.83;62.72;153141.81;1712563;83;20398;-70
2022/09/01 04:58:11;;;;;;;;;;;;;;;21.84;62.62;153144.42;1712273;83;20240;-69
2022/09/01 05:00:37;;;;;;;;;;;;;;;21.83;62.61;153141.81;1712139;83;21141;-62
2022/09/01 05:03:05;;;;;;;;;;;;;;;21.86;62.87;153149.66;1712159;83;20177;-62
2022/09/01 05:05:43;;;;;;;;;;;;;;;21.91;62.90;153162.72;1708652;83;20206;-63
2022/09/01 05:08:15;;;;;;;;;;;;;;;21.93;62.92;153167.94;1707746;84;20333;-62
2022/09/01 05:10:45;;;;;;;;;;;;;;;21.96;63.11;153175.78;1708145;83;20446;-61
2022/09/01 05:13:16;;;;;;;;;;;;;;;21.95;62.96;153173.16;1706729;84;21239;-61
2022/09/01 05:15:48;;;;;;;;;;;;;;;21.97;63.40;153177.11;1707879;84;20194;-62
2022/09/01 05:18:22;;;;;;;;;;;;;;;21.98;63.37;153181.00;1706819;84;20185;-70
2022/09/01 05:20:46;;;;;;;;;;;;;;;22.10;63.46;153209.80;1707517;84;20455;-71
2022/09/01 05:23:16;;;;;;;;;;;;;;;22.18;63.14;153232.03;1707945;83;20206;-70
2022/09/01 05:25:42;;;;;;;;;;;;;;;22.25;63.11;153249.03;1708041;84;21149;-71
2022/09/01 05:28:11;;;;;;;;;;;;;;;22.26;62.63;153251.66;1707618;84;20178;-71
2022/09/01 05:30:39;;;;;;;;;;;;;;;22.24;62.80;153246.44;1708481;84;20462;-70
2022/09/01 05:33:10;;;;;;;;;;;;;;;22.29;62.69;153259.50;1707683;84;20202;-70
2022/09/01 05:35:42;;;;;;;;;;;;;;;22.39;62.75;153283.02;1707902;84;20234;-70
2022/09/01 05:38:11;;;;;;;;;;;;;;;22.50;62.36;153311.88;1707398;83;21996;-71
2022/09/01 05:40:42;;;;;;;;;;;;;;;22.56;61.77;153327.55;1708181;83;20197;-71
2022/09/01 05:43:11;;;;;;;;;;;;;;;22.44;61.68;153297.42;1707889;84;20202;-69
2022/09/01 05:45:42;;;;;;;;;;;;;;;22.30;62.08;153262.11;1708552;83;20716;-70
2022/09/01 05:48:12;;;;;;;;;;;;;;;22.22;62.45;153241.20;1707757;84;20459;-70
2022/09/01 05:50:41;;;;;;;;;;;;;;;22.25;62.37;153249.03;1686927;84;21247;-71
2022/09/01 05:53:14;;;;;;;;;;;;;;;22.32;62.12;153267.33;1708794;83;20255;-70
2022/09/01 05:55:39;;;;;;;;;;;;;;;22.39;62.01;153283.02;1680957;84;20189;-69
2022/09/01 05:58:06;;;;;;;;;;;;;;;22.44;62.30;153296.14;1707123;84;20190;-71
2022/09/01 06:00:37;;;;;;;;;;;;;;;22.58;62.15;153331.50;1706167;82;20203;-71
2022/09/01 06:03:03;;;;;;;;;;;;;;;22.72;61.75;153366.81;1700730;82;21100;-69
2022/09/01 06:05:34;;;;;;;;;;;;;;;22.64;61.47;153347.19;1701472;84;20287;-69
2022/09/01 06:08:04;;;;;;;;;;;;;;;22.57;61.68;153328.88;1708489;84;20201;-70
2022/09/01 06:10:34;;;;;;;;;;;;;;;22.51;61.86;153313.16;1703305;84;20443;-70
2022/09/01 06:13:02;;;;;;;;;;;;;;;22.53;62.00;153319.70;1707081;83;20185;-70
2022/09/01 06:15:29;;;;;;;;;;;;;;;22.60;61.88;153336.72;1705841;84;21857;-71
2022/09/01 06:17:57;;;;;;;;;;;;;;;22.72;61.54;153368.09;1694092;82;20198;-70
2022/09/01 06:20:25;;;;;;;;;;;;;;;22.92;61.33;153416.53;1691529;82;20189;-71
2022/09/01 06:22:52;;;;;;;;;;;;;;;23.15;60.39;153476.72;1706708;83;20225;-70
2022/09/01 06:25:20;;;;;;;;;;;;;;;23.31;59.90;153517.31;1697651;84;20398;-70
2022/09/01 06:27:47;;;;;;;;;;;;;;;23.52;59.45;153568.34;1692534;84;22168;-71
2022/09/01 06:30:19;;;;;;;;;;;;;;;23.74;58.32;153625.94;1703753;84;20187;-71
2022/09/01 06:32:48;;;;;;;;;;;;;;;23.90;57.83;153665.22;1703199;84;20214;-71
2022/09/01 06:35:16;;;;;;;;;;;;;;;24.05;57.08;153703.23;1693587;84;20310;-70
2022/09/01 06:37:44;;;;;;;;;;;;;;;24.07;56.56;153708.47;1698965;84;20566;-71
2022/09/01 06:40:16;;;;;;;;;;;;;;;24.01;56.31;153694.09;1695450;83;21090;-68
2022/09/01 06:42:46;;;;;;;;;;;;;;;23.88;56.63;153659.98;1699550;83;20210;-71
2022/09/01 06:45:14;;;;;;;;;;;;;;;23.79;57.05;153636.45;1704084;84;20223;-70
2022/09/01 06:47:46;;;;;;;;;;;;;;;23.82;57.15;153644.30;1691907;84;20186;-71
2022/09/01 06:50:14;;;;;;;;;;;;;;;23.81;57.21;153641.69;1690574;82;20222;-71
2022/09/01 06:52:41;;;;;;;;;;;;;;;23.72;57.52;153620.70;1690088;84;21256;-71
2022/09/01 06:55:09;;;;;;;;;;;;;;;23.77;57.51;153631.22;1678643;84;20270;-70
2022/09/01 06:57:38;;;;;;;;;;;;;;;23.83;57.34;153646.91;1700765;84;20190;-61
2022/09/01 07:00:16;;;;;;;;;;;;;;;23.88;57.27;153659.98;1709268;82;20479;-61
2022/09/01 07:02:38;;;;;;;;;;;;;;;23.95;56.80;153678.31;1709133;82;20887;-62
2022/09/01 07:05:22;;;;;;;;;;;;;;;24.00;56.39;153690.09;1684013;82;21351;-62
2022/09/01 07:07:51;;;;;;;;;;;;;;;23.97;56.45;153683.53;1714012;82;20195;-62
2022/09/01 07:10:23;;;;;;;;;;;;;;;24.08;56.76;153709.80;1706864;82;20541;-63
2022/09/01 07:12:58;;;;;;;;;;;;;;;24.22;56.29;153745.14;1706020;82;20178;-62
2022/09/01 07:15:26;;;;;;;;;;;;;;;24.26;55.94;153756.94;1685631;84;20147;-62
2022/09/01 07:17:57;;;;;;;;;;;;;;;24.43;55.79;153798.86;1671339;84;21303;-62
2022/09/01 07:20:26;;;;;;;;;;;;;;;24.66;55.16;153856.48;1638893;85;20179;-63
2022/09/01 07:22:54;;;;;;;;;;;;;;;24.92;54.50;153922.02;1639325;85;20223;-62
2022/09/01 07:25:21;;;;;;;;;;;;;;;25.09;53.93;153966.56;1672197;83;21045;-62
2022/09/01 07:27:53;;;;;;;;;;;;;;;25.21;53.72;153996.69;1641713;84;20182;-62
2022/09/01 07:30:21;;;;;;;;;;;;;;;25.21;53.49;153996.69;1668765;84;21326;-71
2022/09/01 07:32:49;;;;;;;;;;;;;;;25.23;52.83;154000.59;1672186;84;21559;-71
2022/09/01 07:35:20;;;;;;;;;;;;;;;25.28;52.96;154015.02;1693109;83;20464;-71
2022/09/01 07:37:47;;;;;;;;;;;;;;;25.46;52.64;154060.86;1706278;82;20241;-63
2022/09/01 07:40:17;;;;;;;;;;;;;;;25.58;52.29;154091.05;1686659;84;20182;-62
2022/09/01 07:43:15;;;;;;;;;;;;;;;25.73;51.97;154127.75;1681430;84;20175;-61
2022/09/01 07:46:03;;;;;;;;;;;;;;;26.02;51.64;154201.14;1658194;85;20207;-62
2022/09/01 07:48:32;;;;;;;;;;;;;;;26.37;49.99;154290.34;1671891;84;20172;-62
2022/09/01 07:50:59;;;;;;;;;;;;;;;26.42;49.70;154303.44;1637692;85;20505;-63
2022/09/01 07:53:30;;;;;;;;;;;;;;;26.48;51.11;154317.87;1696151;83;20498;-62
2022/09/01 07:55:56;;;;;;;;;;;;;;;26.62;51.98;154353.27;1701286;83;22776;-62
2022/09/01 07:58:25;;;;;;;;;;;;;;;26.85;51.82;154412.31;1677854;84;20202;-63
2022/09/01 08:00:54;;;;;;;;;;;;;;;27.01;51.76;154451.66;1691039;83;20194;-62
2022/09/01 08:03:23;;;;;;;;;;;;;;;27.21;50.88;154501.50;1702860;83;20226;-62
2022/09/01 08:05:56;;;;;;;;;;;;;;;27.15;50.84;154488.41;1698693;83;20227;-62
2022/09/01 08:08:20;;;;;;;;;;;;;;;27.22;50.95;154505.47;1707929;83;21304;-62
2022/09/01 08:10:48;;;;;;;;;;;;;;;27.31;50.50;154527.77;1702730;83;20209;-62
2022/09/01 08:13:15;;;;;;;;;;;;;;;27.31;50.27;154527.77;1691457;82;20203;-62
2022/09/01 08:15:42;;;;;;;;;;;;;;;27.21;50.16;154501.50;1705449;82;20225;-62
2022/09/01 08:18:09;;;;;;;;;;;;;;;27.04;50.40;154459.52;1718052;82;20192;-62
2022/09/01 08:20:38;;;;;;;;;;;;;;;26.95;50.81;154435.94;1703370;84;21283;-62
2022/09/01 08:23:18;;;;;;;;;;;;;;;26.95;51.54;154435.94;1702504;84;20467;-62
2022/09/01 08:25:46;;;;;;;;;;;;;;;26.90;51.42;154422.83;1702807;83;20218;-62
2022/09/01 08:28:13;;;;;;;;;;;;;;;26.85;51.74;154412.31;1708447;82;20187;-62
2022/09/01 08:30:41;;;;;;;;;;;;;;;26.84;51.75;154408.34;1698726;84;20543;-64
2022/09/01 08:33:12;;;;;;;;;;;;;;;26.86;51.55;154414.97;1701893;83;20581;-63
2022/09/01 08:35:39;;;;;;;;;;;;;;;26.83;51.47;154405.72;1699530;82;20190;-62
2022/09/01 08:38:05;;;;;;;;;;;;;;;26.76;51.32;154388.67;1700191;84;20614;-62
2022/09/01 08:40:33;;;;;;;;;;;;;;;26.70;51.57;154372.95;1702673;83;20462;-62
2022/09/01 08:43:03;;;;;;;;;;;;;;;26.72;51.56;154378.19;1675335;84;20235;-61
2022/09/01 08:45:46;;;;;;;;;;;;;;;26.73;51.61;154382.09;1636409;87;21184;-62
2022/09/01 08:48:18;;;;;;;;;;;;;;;26.85;51.98;154412.31;1677344;85;20364;-62
2022/09/01 08:50:48;;;;;;;;;;;;;;;26.97;51.37;154441.19;1694181;83;20215;-62
2022/09/01 08:53:35;;;;;;;;;;;;;;;27.08;47.50;154468.72;1671078;84;20195;-62
2022/09/01 08:56:02;;;;;;;;;;;;;;;27.19;44.39;154496.27;1669278;84;20207;-63
2022/09/01 08:58:30;;;;;;;;;;;;;;;27.14;46.10;154485.78;1668863;84;21120;-62
2022/09/01 09:01:34;;;;;;;;;;;;;;;27.19;45.45;154497.59;1667092;84;20204;-62
2022/09/01 09:04:10;;;;;;;;;;;;;;;27.26;44.26;154514.61;1663308;84;20243;-62
2022/09/01 09:06:42;;;;;;;;;;;;;;;27.22;43.79;154505.47;1680498;83;20315;-63
2022/09/01 09:09:10;;;;;;;;;;;;;;;27.14;43.54;154485.78;1697005;83;20455;-62
2022/09/01 09:11:47;;;;;;;;;;;;;;;27.15;43.36;154488.41;1709632;82;21144;-61
2022/09/01 09:14:34;;;;;;;;;;;;;;;27.23;42.96;154506.75;1703067;82;20887;-63
2022/09/01 09:17:03;;;;;;;;;;;;;;;27.35;43.25;154538.25;1671691;82;20303;-62
2022/09/01 09:19:38;;;;;;;;;;;;;;;27.57;43.48;154594.69;1714132;82;20180;-60
2022/09/01 09:22:10;;;;;;;;;;;;;;;27.66;43.55;154616.98;1715662;82;20184;-61
2022/09/01 09:24:46;;;;;;;;;;;;;;;27.80;42.64;154652.41;1713081;81;21369;-61
2022/09/01 09:27:26;;;;;;;;;;;;;;;27.79;41.00;154648.50;1670016;84;21324;-61
2022/09/01 09:30:07;;;;;;;;;;;;;;;27.70;40.22;154626.19;1678845;84;20190;-62
2022/09/01 09:33:02;;;;;;;;;;;;;;;27.53;39.89;154582.91;1704132;83;20456;-61
2022/09/01 09:35:34;;;;;;;;;;;;;;;27.49;40.53;154573.66;1678763;84;20212;-62
2022/09/01 09:38:27;;;;;;;;;;;;;;;27.56;39.88;154592.06;1673780;84;21146;-62
2022/09/01 09:41:07;;;;;;;;;;;;;;;27.49;39.62;154572.31;1675385;84;20228;-62
2022/09/01 09:43:47;;;;;;;;;;;;;;;27.53;38.80;154582.91;1672795;84;20199;-63
2022/09/01 09:46:26;;;;;;;;;;;;;;;27.59;38.56;154598.64;1655131;84;20225;-61
2022/09/01 09:49:19;;;;;;;;;;;;;;;27.66;37.55;154616.98;1671856;84;20227;-62
2022/09/01 09:52:00;;;;;;;;;;;;;;;27.66;37.13;154615.70;1677473;84;21761;-63
2022/09/01 09:54:31;;;;;;;;;;;;;;;27.51;37.54;154577.56;1647087;84;20176;-62
2022/09/01 09:57:11;;;;;;;;;;;;;;;27.38;38.49;154544.78;1638495;87;20246;-71
2022/09/01 09:59:52;;;;;;;;;;;;;;;27.44;38.75;154560.55;1710313;83;20134;-71
2022/09/01 10:02:31;;;;;;;;;;;;;;;27.52;39.20;154580.23;1684758;83;20174;-69
2022/09/01 10:04:56;;;;;;;;;;;;;;;27.49;39.18;154572.31;1705015;83;21134;-70
2022/09/01 10:07:25;;;;;;;;;;;;;;;27.34;38.85;154535.63;1704888;83;20536;-69
2022/09/01 10:09:52;;;;;;;;;;;;;;;27.24;38.97;154509.38;1712747;83;20198;-71
2022/09/01 10:12:19;;;;;;;;;;;;;;;27.27;38.48;154517.23;1707783;83;20962;-62
2022/09/01 10:14:55;;;;;;;;;;;;;;;27.14;38.06;154485.78;1708145;83;20185;-61
2022/09/01 10:17:34;;;;;;;;;;;;;;;26.93;38.39;154430.70;1685995;83;21181;-61
2022/09/01 10:20:05;;;;;;;;;;;;;;;26.78;38.80;154393.91;1706437;83;20174;-62
2022/09/01 10:22:33;;;;;;;;;;;;;;;26.78;38.25;154392.63;1699459;82;20137;-62
2022/09/01 10:24:59;;;;;;;;;;;;;;;26.82;37.77;154403.11;1708985;83;20241;-62
2022/09/01 10:27:29;;;;;;;;;;;;;;;26.85;37.82;154412.31;1705685;83;21045;-62
2022/09/01 10:30:12;;;;;;;;;;;;;;;26.88;36.94;154420.22;1705689;83;21310;-62
2022/09/01 10:32:46;;;;;;;;;;;;;;;26.76;37.15;154388.67;1702333;83;20148;-62
2022/09/01 10:35:23;;;;;;;;;;;;;;;26.74;37.84;154383.44;1696759;83;20449;-62
2022/09/01 10:37:49;;;;;;;;;;;;;;;26.87;38.83;154417.59;1702894;82;20496;-72
2022/09/01 10:40:27;;;;;;;;;;;;;;;27.00;39.05;154449.03;1697439;83;20210;-72
2022/09/01 10:42:54;;;;;;;;;;;;;;;26.90;39.34;154422.83;1708083;82;21132;-70
2022/09/01 10:45:31;;;;;;;;;;;;;;;26.79;40.03;154395.25;1703229;83;20218;-70
2022/09/01 10:48:22;;;;;;;;;;;;;;;26.73;40.56;154380.81;1704905;83;20182;-71
2022/09/01 10:50:55;;;;;;;;;;;;;;;26.64;41.42;154357.19;1709232;82;20534;-72
2022/09/01 10:53:37;;;;;;;;;;;;;;;26.64;41.50;154357.19;1701195;83;20183;-72
2022/09/01 10:56:41;;;;;;;;;;;;;;;26.63;41.28;154355.89;1708041;82;21221;-71
2022/09/01 10:59:24;;;;;;;;;;;;;;;26.69;41.26;154371.61;1679251;83;20318;-71
2022/09/01 11:01:55;;;;;;;;;;;;;;;26.79;41.22;154396.53;1696537;83;20262;-71
2022/09/01 11:04:31;;;;;;;;;;;;;;;26.91;40.99;154425.45;1704272;82;20941;-72
2022/09/01 11:07:00;;;;;;;;;;;;;;;26.94;40.94;154433.31;1684930;83;20180;-72
2022/09/01 11:09:33;;;;;;;;;;;;;;;26.86;40.78;154413.64;1659880;85;21153;-70
2022/09/01 11:12:23;;;;;;;;;;;;;;;26.77;40.91;154390.00;1665520;84;20181;-71
2022/09/01 11:14:56;;;;;;;;;;;;;;;26.71;41.01;154375.56;1666537;84;20337;-70
2022/09/01 11:17:36;;;;;;;;;;;;;;;26.72;40.24;154378.19;1669572;84;20282;-70
2022/09/01 11:20:23;;;;;;;;;;;;;;;26.69;40.31;154370.33;1679800;83;20144;-70
2022/09/01 11:22:59;;;;;;;;;;;;;;;26.69;40.91;154370.33;1670754;84;21289;-70
2022/09/01 11:25:35;;;;;;;;;;;;;;;26.77;40.71;154390.00;1664427;84;20500;-61
2022/09/01 11:28:18;;;;;;;;;;;;;;;26.90;40.17;154424.13;1671795;84;20281;-62
2022/09/01 11:31:04;;;;;;;;;;;;;;;26.93;40.28;154430.70;1665085;84;20799;-63
2022/09/01 11:34:03;;;;;;;;;;;;;;;26.84;39.96;154409.64;1677195;84;20231;-62
2022/09/01 11:36:46;;;;;;;;;;;;;;;26.73;40.37;154380.81;1700664;82;21247;-62
2022/09/01 11:39:25;;;;;;;;;;;;;;;26.65;40.70;154361.13;1693459;82;20164;-62
2022/09/01 11:41:57;;;;;;;;;;;;;;;26.64;40.14;154357.19;1699147;82;20195;-63
2022/09/01 11:44:28;;;;;;;;;;;;;;;26.61;39.53;154350.66;1718398;82;20680;-64
2022/09/01 11:46:58;;;;;;;;;;;;;;;26.57;39.37;154341.45;1709648;82;20504;-63
2022/09/01 11:49:33;;;;;;;;;;;;;;;26.64;38.32;154357.19;1717120;82;21192;-61
2022/09/01 11:52:01;;;;;;;;;;;;;;;26.60;38.15;154349.31;1688692;84;20119;-62
2022/09/01 11:54:28;;;;;;;;;;;;;;;26.69;37.93;154370.33;1681255;83;20198;-62
2022/09/01 11:56:55;;;;;;;;;;;;;;;26.76;37.62;154388.67;1705201;83;20785;-62
2022/09/01 11:59:35;;;;;;;;;;;;;;;26.77;37.30;154391.28;1697732;83;20450;-63
2022/09/01 12:02:02;;;;;;;;;;;;;;;26.69;37.98;154371.61;1698743;83;21157;-63
2022/09/01 12:04:32;;;;;;;;;;;;;;;26.65;38.48;154359.84;1689683;83;20316;-62
2022/09/01 12:07:03;;;;;;;;;;;;;;;26.83;38.91;154407.02;1699927;83;20450;-64
2022/09/01 12:09:44;;;;;;;;;;;;;;;27.01;38.75;154451.66;1702101;83;21116;-62
2022/09/01 12:12:29;;;;;;;;;;;;;;;26.90;38.66;154422.83;1705696;83;20569;-62
2022/09/01 12:15:09;;;;;;;;;;;;;;;26.75;38.76;154386.05;1698012;83;20636;-61
2022/09/01 12:17:36;;;;;;;;;;;;;;;26.69;38.59;154371.61;1696050;83;20148;-62
2022/09/01 12:20:27;;;;;;;;;;;;;;;26.73;38.48;154380.81;1687286;83;20317;-63
2022/09/01 12:22:54;;;;;;;;;;;;;;;26.72;38.27;154378.19;1654045;84;20893;-63
2022/09/01 12:25:24;;;;;;;;;;;;;;;26.61;38.66;154350.66;1656280;84;20178;-62
2022/09/01 12:27:51;;;;;;;;;;;;;;;26.54;39.11;154333.59;1631325;86;21278;-67
2022/09/01 12:30:18;;;;;;;;;;;;;;;26.65;38.99;154359.84;1665495;84;20476;-62
2022/09/01 12:32:45;;;;;;;;;;;;;;;26.82;38.67;154403.11;1688936;84;20201;-62
2022/09/01 12:35:23;;;;;;;;;;;;;;;26.93;38.05;154431.98;1688577;84;22062;-62
2022/09/01 12:37:51;;;;;;;;;;;;;;;26.82;37.76;154404.39;1689049;84;20116;-62
2022/09/01 12:40:33;;;;;;;;;;;;;;;26.59;38.00;154346.70;1693664;84;21208;-62
2022/09/01 12:42:59;;;;;;;;;;;;;;;26.53;38.24;154330.98;1685130;84;20216;-63
2022/09/01 12:45:44;;;;;;;;;;;;;;;26.65;37.50;154359.84;1690309;84;20476;-63
2022/09/01 12:48:24;;;;;;;;;;;;;;;26.64;37.71;154358.52;1698037;84;20173;-63
2022/09/01 12:50:51;;;;;;;;;;;;;;;26.62;37.44;154351.94;1698097;83;20173;-62
2022/09/01 12:53:19;;;;;;;;;;;;;;;26.56;37.72;154338.84;1691050;83;21264;-63
2022/09/01 12:55:58;;;;;;;;;;;;;;;26.56;37.48;154337.55;1703515;82;20246;-63
2022/09/01 12:58:25;;;;;;;;;;;;;;;26.59;36.66;154346.70;1707717;82;20229;-62
2022/09/01 13:01:05;;;;;;;;;;;;;;;26.68;36.59;154367.70;1677811;84;20511;-62